Time;durP1;ratioP1;P1;durP2;ratioP2;P2;SDS_P1;SDS_P2;PMS_P1;PMS_P2;Temp;Humidity;BMP_temperature;BMP_pressure;BME280_temperature;BME280_humidity;BME280_pressure;Samples;Min_cycle;Max_cycle;Signal;HPM_P1;HPM_P2
2022/04/08 00:00:54;;;;;;;2.70;1.83;;;;;;;8.60;82.29;153567.13;5066773;28;20437;-77
2022/04/08 00:03:30;;;;;;;3.67;1.40;;;;;;;8.61;78.73;153569.69;5077763;28;20433;-77
2022/04/08 00:06:07;;;;;;;1.97;1.10;;;;;;;8.61;81.85;153569.69;5080554;28;20855;-77
2022/04/08 00:08:44;;;;;;;5.03;1.00;;;;;;;8.56;80.58;153559.38;5077202;28;20425;-77
2022/04/08 00:11:19;;;;;;;2.70;1.33;;;;;;;8.54;81.65;153554.19;5080292;28;20465;-77
2022/04/08 00:13:55;;;;;;;3.13;1.57;;;;;;;8.52;82.88;153549.00;5066243;28;20444;-77
2022/04/08 00:16:31;;;;;;;2.63;1.50;;;;;;;8.50;80.01;153543.84;5069600;28;20799;-77
2022/04/08 00:19:08;;;;;;;1.93;1.10;;;;;;;8.52;81.14;153549.00;5066092;28;20440;-78
2022/04/08 00:21:44;;;;;;;4.47;1.67;;;;;;;8.46;80.86;153533.53;5082024;28;20524;-77
2022/04/08 00:24:19;;;;;;;2.67;1.20;;;;;;;8.49;80.69;153541.28;5066851;28;20449;-78
2022/04/08 00:26:55;;;;;;;5.33;1.70;;;;;;;8.46;81.09;153533.53;5069683;28;20440;-78
2022/04/08 00:29:31;;;;;;;2.50;1.23;;;;;;;8.46;81.99;153533.53;5068624;28;20492;-78
2022/04/08 00:32:07;;;;;;;2.90;1.27;;;;;;;8.48;81.57;153538.69;5068571;28;20543;-77
2022/04/08 00:34:55;;;;;;;3.90;1.50;;;;;;;8.46;80.44;153532.22;5069912;28;20465;-78
2022/04/08 00:37:31;;;;;;;3.90;1.33;;;;;;;8.45;80.56;153530.91;5070801;28;20477;-77
2022/04/08 00:40:10;;;;;;;3.47;1.50;;;;;;;8.42;80.57;153523.16;5086101;28;20511;-78
2022/04/08 00:42:46;;;;;;;1.97;0.97;;;;;;;8.41;76.76;153520.59;5084604;28;20433;-78
2022/04/08 00:45:22;;;;;;;2.47;1.30;;;;;;;8.49;80.64;153539.97;5067995;28;20458;-78
2022/04/08 00:48:06;;;;;;;3.70;1.30;;;;;;;8.48;81.67;153538.69;5083604;28;20817;-78
2022/04/08 00:50:45;;;;;;;2.27;1.00;;;;;;;8.41;79.98;153520.59;5066670;28;20457;-78
2022/04/08 00:53:20;;;;;;;6.93;1.53;;;;;;;8.39;81.28;153514.13;5082465;28;20808;-77
2022/04/08 00:55:56;;;;;;;4.33;1.40;;;;;;;8.37;83.77;153510.22;5079243;28;21125;-78
2022/04/08 00:58:32;;;;;;;2.37;1.33;;;;;;;8.34;82.88;153502.47;5080076;28;20491;-78
2022/04/08 01:01:08;;;;;;;4.07;1.57;;;;;;;8.39;79.29;153514.13;5071144;28;20792;-77
2022/04/08 01:03:44;;;;;;;3.40;1.23;;;;;;;8.36;78.72;153507.69;5079949;28;20769;-77
2022/04/08 01:06:50;;;;;;;2.70;1.30;;;;;;;8.35;81.77;153505.06;5065379;28;20432;-77
2022/04/08 01:09:37;;;;;;;5.03;1.33;;;;;;;8.30;80.15;153490.84;5081456;28;20458;-78
2022/04/08 01:12:13;;;;;;;3.27;1.70;;;;;;;8.29;79.92;153489.56;5082139;28;20525;-78
2022/04/08 01:14:49;;;;;;;3.53;1.83;;;;;;;8.32;78.02;153497.31;5084123;28;20452;-78
2022/04/08 01:17:24;;;;;;;2.83;1.70;;;;;;;8.26;77.31;153480.50;5063679;28;20947;-78
2022/04/08 01:20:00;;;;;;;4.87;1.80;;;;;;;8.28;78.49;153485.69;5097134;28;20433;-78
2022/04/08 01:22:36;;;;;;;2.13;1.20;;;;;;;8.21;79.97;153468.81;5082869;28;20453;-78
2022/04/08 01:25:14;;;;;;;3.90;1.70;;;;;;;8.24;75.44;153476.59;5076964;28;20521;-78
2022/04/08 01:27:49;;;;;;;1.37;0.93;;;;;;;8.24;78.45;153475.28;5066945;28;20458;-78
2022/04/08 01:30:25;;;;;;;3.20;1.50;;;;;;;8.21;78.51;153467.50;5082536;28;20457;-77
2022/04/08 01:33:00;;;;;;;2.20;1.23;;;;;;;8.12;78.51;153444.28;5081890;28;20450;-77
2022/04/08 01:35:36;;;;;;;2.80;1.23;;;;;;;8.08;82.32;153435.22;5082235;28;20438;-78
2022/04/08 01:38:12;;;;;;;4.97;1.37;;;;;;;8.07;78.19;153432.66;5081801;28;20444;-77
2022/04/08 01:40:49;;;;;;;2.23;1.50;;;;;;;8.08;78.42;153433.94;5083347;28;20425;-77
2022/04/08 01:43:25;;;;;;;2.23;1.20;;;;;;;8.09;79.69;153437.81;5086644;28;20990;-77
2022/04/08 01:46:00;;;;;;;2.37;1.10;;;;;;;8.12;78.57;153445.59;5083017;28;20429;-77
2022/04/08 01:48:36;;;;;;;3.30;1.20;;;;;;;8.12;78.41;153444.28;5083885;28;20452;-77
2022/04/08 01:51:11;;;;;;;3.40;1.57;;;;;;;8.13;79.22;153448.13;5081868;28;20960;-77
2022/04/08 01:53:47;;;;;;;3.27;1.60;;;;;;;8.07;77.24;153432.66;5081704;28;20437;-76
2022/04/08 01:56:24;;;;;;;2.47;1.10;;;;;;;8.07;75.89;153431.38;5073650;28;20919;-78
2022/04/08 01:59:00;;;;;;;3.30;1.20;;;;;;;8.07;80.77;153432.66;5070990;28;20455;-77
2022/04/08 02:01:35;;;;;;;2.73;1.30;;;;;;;8.05;81.03;153426.22;5086078;28;20441;-78
2022/04/08 02:04:11;;;;;;;4.90;1.43;;;;;;;7.98;80.44;153409.41;5083182;28;20435;-77
2022/04/08 02:06:46;;;;;;;2.37;1.50;;;;;;;7.95;81.49;153402.94;5068768;28;20436;-77
2022/04/08 02:09:22;;;;;;;3.10;1.47;;;;;;;7.93;78.86;153397.78;5087250;28;20461;-77
2022/04/08 02:11:59;;;;;;;3.20;1.73;;;;;;;7.95;81.32;153401.63;5074580;28;20469;-77
2022/04/08 02:14:34;;;;;;;4.70;1.63;;;;;;;7.87;82.30;153382.25;5090646;28;20955;-77
2022/04/08 02:17:10;;;;;;;1.93;1.03;;;;;;;7.91;81.22;153391.31;5068142;28;20449;-77
2022/04/08 02:19:45;;;;;;;4.23;1.37;;;;;;;7.84;79.05;153373.19;5071037;28;20437;-76
2022/04/08 02:22:24;;;;;;;2.60;1.00;;;;;;;7.85;76.29;153377.09;5081129;28;20437;-78
2022/04/08 02:25:01;;;;;;;3.30;1.20;;;;;;;7.85;79.52;153375.81;5083021;28;20435;-77
2022/04/08 02:27:39;;;;;;;5.13;1.07;;;;;;;7.80;78.75;153362.88;5067243;28;20458;-77
2022/04/08 02:30:14;;;;;;;2.20;1.40;;;;;;;7.72;76.81;153343.53;5082996;28;20448;-77
2022/04/08 02:32:53;;;;;;;5.13;2.27;;;;;;;7.70;79.37;153337.06;5085808;28;20887;-77
2022/04/08 02:35:30;;;;;;;5.93;1.60;;;;;;;7.66;83.48;153328.00;5067241;28;20540;-77
2022/04/08 02:38:06;;;;;;;2.13;1.17;;;;;;;7.67;81.61;153330.59;5085293;28;20452;-77
2022/04/08 02:40:41;;;;;;;5.03;1.20;;;;;;;7.69;82.97;153334.47;5088452;28;20461;-78
2022/04/08 02:43:18;;;;;;;4.00;1.40;;;;;;;7.65;83.57;153325.41;5088884;28;20543;-77
2022/04/08 02:45:54;;;;;;;2.90;1.37;;;;;;;7.63;82.43;153318.94;5087058;28;20449;-78
2022/04/08 02:48:29;;;;;;;2.33;1.10;;;;;;;7.61;82.20;153313.78;5085824;28;20454;-77
2022/04/08 02:51:05;;;;;;;2.83;1.20;;;;;;;7.59;79.05;153309.94;5093199;28;20552;-77
2022/04/08 02:53:40;;;;;;;1.90;1.27;;;;;;;7.60;80.60;153312.50;5090120;28;20429;-78
2022/04/08 02:56:39;;;;;;;4.17;1.50;;;;;;;7.61;83.21;153313.78;5089986;28;20437;-77
2022/04/08 02:59:16;;;;;;;3.43;1.30;;;;;;;7.61;84.25;153313.78;5098377;28;20522;-77
2022/04/08 03:01:51;;;;;;;1.60;1.07;;;;;;;7.58;82.58;153306.03;5085476;28;20535;-78
2022/04/08 03:04:27;;;;;;;2.47;1.27;;;;;;;7.60;84.70;153312.50;5087233;28;20440;-78
2022/04/08 03:07:03;;;;;;;3.70;1.10;;;;;;;7.62;83.03;153317.69;5083711;28;20430;-78
2022/04/08 03:09:39;;;;;;;3.77;1.30;;;;;;;7.62;82.10;153316.41;5085980;28;20857;-78
2022/04/08 03:12:15;;;;;;;2.23;1.40;;;;;;;7.60;84.69;153312.50;5089484;28;20500;-78
2022/04/08 03:14:57;;;;;;;2.70;1.10;;;;;;;7.62;81.55;153317.69;5081069;28;20950;-78
2022/04/08 03:17:32;;;;;;;2.80;1.30;;;;;;;7.57;83.61;153303.47;5079899;28;20437;-77
2022/04/08 03:20:09;;;;;;;3.00;1.60;;;;;;;7.54;80.99;153295.72;5071287;28;20436;-78
2022/04/08 03:22:44;;;;;;;2.60;1.17;;;;;;;7.53;80.39;153294.44;5082276;28;20437;-77
2022/04/08 03:25:20;;;;;;;4.10;1.30;;;;;;;7.56;83.16;153300.88;5088413;28;20436;-77
2022/04/08 03:27:56;;;;;;;2.40;1.17;;;;;;;7.53;80.97;153293.13;5087816;28;20448;-77
2022/04/08 03:30:33;;;;;;;1.53;1.27;;;;;;;7.47;78.96;153277.63;5083882;28;20464;-77
2022/04/08 03:33:09;;;;;;;2.83;1.17;;;;;;;7.40;76.80;153259.53;5086938;28;20445;-77
2022/04/08 03:35:45;;;;;;;4.00;1.50;;;;;;;7.38;79.22;153254.41;5067235;28;20437;-77
2022/04/08 03:38:20;;;;;;;2.00;1.30;;;;;;;7.36;76.68;153250.50;5094832;28;20444;-77
2022/04/08 03:41:00;;;;;;;3.43;1.50;;;;;;;7.43;76.59;153268.59;5081848;28;20809;-77
2022/04/08 03:43:36;;;;;;;3.40;1.30;;;;;;;7.40;79.04;153259.53;5083507;28;20807;-78
2022/04/08 03:46:13;;;;;;;1.70;1.20;;;;;;;7.38;77.71;153254.41;5086002;28;20522;-77
2022/04/08 03:48:49;;;;;;;4.17;1.80;;;;;;;7.34;75.11;153245.34;5081581;28;20831;-78
2022/04/08 03:51:24;;;;;;;4.50;1.10;;;;;;;7.37;77.15;153253.09;5079547;28;20453;-77
2022/04/08 03:54:02;;;;;;;3.30;1.30;;;;;;;7.33;75.35;153244.03;5080421;28;20473;-77
2022/04/08 03:56:38;;;;;;;3.33;1.13;;;;;;;7.33;80.16;153244.03;5102480;28;20442;-78
2022/04/08 03:59:14;;;;;;;2.30;1.20;;;;;;;7.28;78.29;153229.88;5084053;28;20444;-78
2022/04/08 04:01:54;;;;;;;2.87;1.30;;;;;;;7.26;79.33;153225.97;5071407;28;20437;-77
2022/04/08 04:04:30;;;;;;;3.30;1.20;;;;;;;7.25;79.00;153223.38;5089047;28;20473;-77
2022/04/08 04:07:05;;;;;;;2.07;1.30;;;;;;;7.30;76.31;153235.03;5066761;28;20459;-77
2022/04/08 04:09:40;;;;;;;2.63;1.10;;;;;;;7.28;79.57;153231.13;5082167;28;20509;-78
2022/04/08 04:12:18;;;;;;;5.87;1.60;;;;;;;7.22;77.11;153215.66;5085029;28;20468;-75
2022/04/08 04:14:54;;;;;;;2.30;1.20;;;;;;;7.20;77.55;153210.47;5082878;28;20445;-77
2022/04/08 04:17:31;;;;;;;1.83;1.00;;;;;;;7.20;78.13;153210.47;5071257;28;20441;-78
2022/04/08 04:20:08;;;;;;;3.33;1.60;;;;;;;7.22;79.66;153214.38;5083299;28;20421;-76
2022/04/08 04:22:43;;;;;;;3.53;1.40;;;;;;;7.23;77.31;153218.22;5079982;28;20448;-76
2022/04/08 04:25:19;;;;;;;3.07;1.30;;;;;;;7.25;80.87;153222.13;5083347;28;20429;-76
2022/04/08 04:27:55;;;;;;;3.43;1.30;;;;;;;7.16;80.47;153200.16;5084424;28;20919;-77
2022/04/08 04:30:31;;;;;;;3.03;1.10;;;;;;;7.13;79.29;153191.09;5079025;28;20424;-77
2022/04/08 04:33:08;;;;;;;4.70;1.63;;;;;;;7.16;78.65;153198.84;5078610;28;20481;-77
2022/04/08 04:35:44;;;;;;;1.90;1.30;;;;;;;7.17;78.39;153201.47;5076288;28;20788;-77
2022/04/08 04:38:19;;;;;;;4.63;1.53;;;;;;;7.16;79.85;153200.16;5080669;28;20551;-77
2022/04/08 04:40:55;;;;;;;2.50;1.47;;;;;;;7.11;79.94;153187.25;5067918;28;20799;-77
2022/04/08 04:43:30;;;;;;;4.03;1.13;;;;;;;7.11;79.92;153187.25;5083020;28;20444;-77
2022/04/08 04:46:06;;;;;;;2.37;1.67;;;;;;;7.09;78.20;153182.09;5082593;28;20433;-77
2022/04/08 04:48:43;;;;;;;3.13;1.07;;;;;;;7.13;79.82;153192.41;5076217;28;20437;-77
2022/04/08 04:51:18;;;;;;;2.50;1.23;;;;;;;7.13;78.42;153192.41;5076665;28;20447;-77
2022/04/08 04:53:54;;;;;;;4.03;1.20;;;;;;;7.12;82.72;153189.81;5080097;28;20796;-77
2022/04/08 04:56:29;;;;;;;2.70;1.23;;;;;;;7.11;81.29;153187.25;5062537;28;20457;-77
2022/04/08 04:59:05;;;;;;;3.47;1.20;;;;;;;7.08;79.83;153179.50;5086580;28;20532;-77
2022/04/08 05:01:41;;;;;;;5.10;1.40;;;;;;;7.10;78.61;153183.34;5080180;28;20441;-77
2022/04/08 05:04:18;;;;;;;5.07;1.57;;;;;;;7.10;80.76;153184.66;5081891;28;20531;-77
2022/04/08 05:06:53;;;;;;;5.90;1.20;;;;;;;7.09;80.75;153182.09;5079046;28;20459;-77
2022/04/08 05:09:29;;;;;;;4.83;1.57;;;;;;;7.08;78.15;153179.50;5086298;28;20547;-77
2022/04/08 05:12:05;;;;;;;1.50;1.00;;;;;;;7.10;80.72;153184.66;5063985;28;20473;-77
2022/04/08 05:14:41;;;;;;;2.13;1.27;;;;;;;7.10;80.67;153184.66;5081070;28;20426;-77
2022/04/08 05:17:17;;;;;;;3.20;1.30;;;;;;;7.10;81.58;153184.66;5078419;28;20436;-77
2022/04/08 05:19:54;;;;;;;4.70;1.50;;;;;;;7.11;78.70;153185.94;5085274;28;20433;-77
2022/04/08 05:22:30;;;;;;;4.07;1.63;;;;;;;7.12;79.26;153188.56;5078088;28;20437;-77
2022/04/08 05:25:06;;;;;;;7.13;1.60;;;;;;;7.07;78.79;153175.66;5067542;28;20465;-77
2022/04/08 05:27:42;;;;;;;4.50;2.07;;;;;;;7.08;83.03;153179.50;5066138;28;20450;-77
2022/04/08 05:30:18;;;;;;;4.67;1.40;;;;;;;7.09;80.47;153182.09;5084697;28;20827;-77
2022/04/08 05:32:55;;;;;;;4.20;1.57;;;;;;;7.08;80.42;153179.50;5091699;28;20815;-77
2022/04/08 05:35:32;;;;;;;5.13;2.00;;;;;;;7.12;81.28;153188.56;5059342;28;20540;-77
2022/04/08 05:38:07;;;;;;;3.17;2.20;;;;;;;7.15;82.44;153197.56;5088055;28;20531;-77
2022/04/08 05:40:43;;;;;;;6.47;1.47;;;;;;;7.15;80.67;153197.56;5089647;28;20425;-76
2022/04/08 05:43:18;;;;;;;3.87;1.50;;;;;;;7.17;79.13;153201.47;5103582;28;20472;-76
2022/04/08 05:45:55;;;;;;;5.70;1.87;;;;;;;7.20;79.80;153210.47;5070545;28;20444;-78
2022/04/08 05:48:31;;;;;;;2.53;1.40;;;;;;;7.24;80.07;153219.53;5070118;28;20440;-77
2022/04/08 05:51:09;;;;;;;2.97;1.53;;;;;;;7.26;79.94;153225.97;5077109;28;20432;-77
2022/04/08 05:53:45;;;;;;;2.13;1.20;;;;;;;7.26;79.37;153225.97;5069441;28;20460;-78
2022/04/08 05:56:20;;;;;;;4.03;1.50;;;;;;;7.27;80.62;153228.56;5085902;28;20457;-77
2022/04/08 05:58:57;;;;;;;3.60;1.60;;;;;;;7.29;79.84;153233.72;5070625;28;20462;-78
2022/04/08 06:01:33;;;;;;;3.03;1.47;;;;;;;7.35;81.98;153247.94;5072302;28;20932;-78
2022/04/08 06:04:09;;;;;;;3.37;1.70;;;;;;;7.36;85.36;153251.78;5084649;28;20437;-77
2022/04/08 06:06:46;;;;;;;2.50;1.50;;;;;;;7.34;82.99;153245.34;5083574;28;20445;-78
2022/04/08 06:09:21;;;;;;;3.80;1.50;;;;;;;7.35;83.32;153247.94;5074224;28;20970;-78
2022/04/08 06:11:57;;;;;;;2.93;1.27;;;;;;;7.40;83.98;153259.53;5088597;28;20469;-78
2022/04/08 06:14:33;;;;;;;3.53;1.27;;;;;;;7.44;84.60;153269.91;5085637;28;20437;-77
2022/04/08 06:17:08;;;;;;;2.73;1.27;;;;;;;7.44;86.13;153271.16;5089148;28;20541;-77
2022/04/08 06:19:46;;;;;;;5.23;1.10;;;;;;;7.41;87.19;153263.44;5071048;28;20437;-77
2022/04/08 06:22:32;;;;;;;3.43;1.40;;;;;;;7.37;87.10;153253.09;5088922;28;20476;-77
2022/04/08 06:25:09;;;;;;;2.00;1.10;;;;;;;7.36;89.98;153250.50;5090563;28;20536;-77
2022/04/08 06:27:45;;;;;;;1.47;1.33;;;;;;;7.34;90.00;153246.63;5086423;28;20440;-77
2022/04/08 06:30:21;;;;;;;3.07;1.70;;;;;;;7.34;91.96;153245.34;5087897;28;20437;-77
2022/04/08 06:32:57;;;;;;;1.70;1.10;;;;;;;7.33;90.78;153244.03;5085761;28;20476;-76
2022/04/08 06:35:33;;;;;;;3.43;1.30;;;;;;;7.39;92.08;153257.00;5090442;28;20444;-77
2022/04/08 06:38:10;;;;;;;1.70;1.30;;;;;;;7.35;93.04;153249.25;5071510;28;20433;-77
2022/04/08 06:40:46;;;;;;;3.43;1.53;;;;;;;7.34;94.74;153245.34;5082493;28;20521;-77
2022/04/08 06:43:21;;;;;;;2.03;1.00;;;;;;;7.33;96.32;153244.03;5086706;28;20840;-77
2022/04/08 06:45:57;;;;;;;2.00;1.10;;;;;;;7.31;95.09;153238.88;5088447;28;20436;-76
2022/04/08 06:48:33;;;;;;;1.60;1.20;;;;;;;7.38;95.90;153254.41;5086761;28;20876;-77
2022/04/08 06:51:08;;;;;;;4.80;1.40;;;;;;;7.36;98.34;153251.78;5086537;28;20434;-77
2022/04/08 06:53:45;;;;;;;2.03;1.30;;;;;;;7.31;99.71;153238.88;5089375;28;20463;-77
2022/04/08 06:56:21;;;;;;;3.23;1.67;;;;;;;7.32;98.96;153240.19;5084476;28;21140;-76
2022/04/08 06:58:56;;;;;;;3.07;1.20;;;;;;;7.26;98.51;153225.97;5085493;28;20426;-77
2022/04/08 07:01:33;;;;;;;3.70;1.60;;;;;;;7.22;98.05;153215.66;5069165;28;20452;-77
2022/04/08 07:04:08;;;;;;;3.37;1.10;;;;;;;7.15;100.00;153196.25;5084076;28;20433;-77
2022/04/08 07:06:44;;;;;;;3.30;1.70;;;;;;;7.17;99.67;153201.47;5080723;28;20468;-77
2022/04/08 07:09:21;;;;;;;4.00;1.10;;;;;;;7.15;100.00;153197.56;5082611;28;20487;-77
2022/04/08 07:11:56;;;;;;;5.07;1.50;;;;;;;7.11;100.00;153185.94;5084672;28;20468;-77
2022/04/08 07:14:32;;;;;;;3.60;1.47;;;;;;;7.09;100.00;153180.81;5080802;28;20469;-77
2022/04/08 07:17:07;;;;;;;1.77;0.90;;;;;;;7.05;100.00;153170.44;5083735;28;20530;-77
2022/04/08 07:19:43;;;;;;;2.93;1.03;;;;;;;7.00;100.00;153158.84;5082441;28;20429;-77
2022/04/08 07:22:19;;;;;;;4.13;1.33;;;;;;;6.95;100.00;153145.94;5090085;28;20441;-75
2022/04/08 07:24:56;;;;;;;2.80;1.10;;;;;;;6.97;100.00;153151.09;5084479;28;20576;-76
2022/04/08 07:27:31;;;;;;;7.07;1.50;;;;;;;6.91;100.00;153134.34;5078659;28;20464;-76
2022/04/08 07:30:08;;;;;;;2.93;1.23;;;;;;;6.95;100.00;153144.63;5069382;28;21054;-76
2022/04/08 07:32:44;;;;;;;2.33;1.43;;;;;;;6.98;100.00;153153.69;5074544;28;20474;-76
2022/04/08 07:35:19;;;;;;;1.80;1.20;;;;;;;6.93;100.00;153140.78;5083672;28;20448;-76
2022/04/08 07:37:55;;;;;;;1.50;1.10;;;;;;;6.98;100.00;153153.69;5073607;28;20453;-76
2022/04/08 07:40:32;;;;;;;2.13;1.07;;;;;;;6.96;100.00;153148.53;5081485;28;20445;-76
2022/04/08 07:43:08;;;;;;;2.00;1.17;;;;;;;7.00;100.00;153158.84;5068088;28;20521;-77
2022/04/08 07:45:43;;;;;;;3.23;1.50;;;;;;;6.98;100.00;153153.69;5082428;28;20433;-76
2022/04/08 07:48:20;;;;;;;2.07;1.10;;;;;;;6.97;100.00;153151.09;5072178;28;20457;-78
2022/04/08 07:50:55;;;;;;;1.73;1.30;;;;;;;7.07;100.00;153175.66;5087270;28;20440;-78
2022/04/08 07:53:32;;;;;;;2.70;1.20;;;;;;;7.10;100.00;153183.34;5077298;28;20465;-78
2022/04/08 07:56:10;;;;;;;4.63;1.10;;;;;;;7.09;100.00;153180.81;5085280;28;20433;-78
2022/04/08 07:58:47;;;;;;;3.33;1.10;;;;;;;7.11;100.00;153185.94;5085102;28;20798;-78
2022/04/08 08:01:23;;;;;;;2.00;1.20;;;;;;;7.17;100.00;153202.75;5086483;28;20437;-77
2022/04/08 08:03:58;;;;;;;1.87;0.93;;;;;;;7.26;100.00;153225.97;5065341;28;21102;-78
2022/04/08 08:06:34;;;;;;;2.40;1.37;;;;;;;7.25;100.00;153222.13;5088573;28;20934;-78
2022/04/08 08:09:10;;;;;;;1.33;1.10;;;;;;;7.34;100.00;153246.63;5082344;28;20453;-78
2022/04/08 08:11:50;;;;;;;4.33;1.43;;;;;;;7.36;100.00;153250.50;5085678;28;20468;-77
2022/04/08 08:14:25;;;;;;;2.73;1.30;;;;;;;7.43;100.00;153268.59;5069927;28;20577;-77
2022/04/08 08:17:01;;;;;;;3.13;1.20;;;;;;;7.46;100.00;153276.34;5070290;28;20445;-77
2022/04/08 08:19:36;;;;;;;1.67;0.83;;;;;;;7.39;100.00;153257.00;5070439;28;20963;-77
2022/04/08 08:22:12;;;;;;;1.60;1.10;;;;;;;7.38;100.00;153255.69;5080692;28;20507;-77
2022/04/08 08:24:49;;;;;;;2.47;1.03;;;;;;;7.48;100.00;153280.22;5085928;28;20437;-77
2022/04/08 08:27:26;;;;;;;2.20;1.33;;;;;;;7.51;100.00;153287.97;5068123;28;20962;-77
2022/04/08 08:30:03;;;;;;;3.60;1.20;;;;;;;7.52;100.00;153290.56;5084985;28;20425;-77
2022/04/08 08:32:38;;;;;;;1.80;1.43;;;;;;;7.50;100.00;153285.38;5087685;28;20473;-77
2022/04/08 08:35:17;;;;;;;2.07;1.30;;;;;;;7.58;100.00;153306.03;5069483;28;20444;-77
2022/04/08 08:37:54;;;;;;;1.30;0.93;;;;;;;7.52;100.00;153290.56;5081910;28;20437;-77
2022/04/08 08:40:31;;;;;;;1.40;1.03;;;;;;;7.54;100.00;153297.03;5078680;28;20445;-77
2022/04/08 08:43:09;;;;;;;1.63;1.10;;;;;;;7.50;100.00;153285.38;5067210;28;20436;-77
2022/04/08 08:45:46;;;;;;;1.30;0.97;;;;;;;7.65;100.00;153324.16;5084670;28;20936;-77
2022/04/08 08:48:23;;;;;;;1.27;0.97;;;;;;;7.58;100.00;153307.34;5062788;28;20822;-78
2022/04/08 08:51:01;;;;;;;3.37;0.90;;;;;;;7.58;100.00;153306.03;5085627;28;20438;-78
2022/04/08 08:53:37;;;;;;;2.33;1.10;;;;;;;7.49;100.00;153282.81;5069971;28;20454;-78
2022/04/08 08:56:12;;;;;;;1.43;0.90;;;;;;;7.57;100.00;153303.47;5077281;28;20437;-78
2022/04/08 08:58:49;;;;;;;1.57;1.10;;;;;;;7.46;100.00;153275.06;5083357;28;20524;-78
2022/04/08 09:01:25;;;;;;;1.50;0.80;;;;;;;7.60;100.00;153312.50;5079811;28;20449;-78
2022/04/08 09:04:00;;;;;;;1.77;1.00;;;;;;;7.45;100.00;153272.47;5085946;28;20433;-78
2022/04/08 09:06:40;;;;;;;2.10;1.80;;;;;;;7.37;100.00;153253.09;5085176;28;20453;-78
2022/04/08 09:09:18;;;;;;;1.40;1.27;;;;;;;7.56;100.00;153300.88;5088337;28;20447;-78
2022/04/08 09:11:53;;;;;;;1.70;1.20;;;;;;;7.57;100.00;153303.47;5080840;28;20891;-78
2022/04/08 09:14:49;;;;;;;3.10;1.30;;;;;;;7.47;100.00;153278.91;5083368;28;20461;-78
2022/04/08 09:17:29;;;;;;;1.97;0.87;;;;;;;7.53;100.00;153294.44;5087868;28;20441;-78
2022/04/08 09:20:06;;;;;;;2.60;1.30;;;;;;;7.53;100.00;153294.44;5087681;28;20464;-78
2022/04/08 09:22:42;;;;;;;1.80;1.40;;;;;;;7.55;100.00;153298.28;5070996;28;20446;-79
2022/04/08 09:25:18;;;;;;;1.37;1.00;;;;;;;7.63;100.00;153320.25;5087521;28;20448;-79
2022/04/08 09:27:57;;;;;;;1.47;0.90;;;;;;;7.72;100.00;153342.22;5087623;28;20445;-79
2022/04/08 09:30:34;;;;;;;1.30;0.80;;;;;;;7.67;100.00;153329.31;5074606;28;20450;-78
2022/04/08 09:33:16;;;;;;;2.03;0.97;;;;;;;7.64;100.00;153322.84;5089012;28;20838;-79
2022/04/08 09:35:55;;;;;;;1.20;0.90;;;;;;;7.66;100.00;153326.72;5087452;28;20441;-78
2022/04/08 09:38:31;;;;;;;1.50;1.10;;;;;;;7.72;100.00;153342.22;5088084;28;20433;-78
2022/04/08 09:41:10;;;;;;;2.80;1.47;;;;;;;7.73;100.00;153344.81;5083873;28;20943;-79
2022/04/08 09:43:46;;;;;;;1.17;0.80;;;;;;;7.67;100.00;153330.59;5085796;28;20444;-79
2022/04/08 09:46:23;;;;;;;1.87;0.70;;;;;;;7.63;100.00;153318.94;5070227;28;21045;-79
2022/04/08 09:48:59;;;;;;;1.20;0.80;;;;;;;7.58;100.00;153307.34;5065017;28;20437;-79
2022/04/08 09:51:37;;;;;;;1.13;0.73;;;;;;;7.53;100.00;153293.13;5073964;28;20437;-79
2022/04/08 09:54:13;;;;;;;1.30;0.60;;;;;;;7.60;100.00;153312.50;5084343;28;20465;-79
2022/04/08 09:56:50;;;;;;;1.13;0.60;;;;;;;7.62;100.00;153317.69;5081788;28;20469;-79
2022/04/08 09:59:28;;;;;;;1.37;0.90;;;;;;;7.58;100.00;153307.34;5084301;28;20448;-78
2022/04/08 10:02:06;;;;;;;1.10;0.80;;;;;;;7.61;100.00;153313.78;5086978;28;20461;-78
2022/04/08 10:04:42;;;;;;;1.57;0.60;;;;;;;7.50;100.00;153286.66;5085135;28;20429;-78
2022/04/08 10:07:18;;;;;;;1.07;0.77;;;;;;;7.42;100.00;153264.69;5068020;28;20536;-78
2022/04/08 10:09:59;;;;;;;2.80;0.77;;;;;;;7.48;100.00;153280.22;5083342;28;20812;-78
2022/04/08 10:12:40;;;;;;;2.00;0.80;;;;;;;7.52;100.00;153290.56;5085395;28;20448;-79
2022/04/08 10:15:22;;;;;;;1.20;0.60;;;;;;;7.48;100.00;153281.50;5083131;28;20816;-79
2022/04/08 10:18:00;;;;;;;0.93;0.57;;;;;;;7.46;100.00;153275.06;5091795;28;20480;-78
2022/04/08 10:20:38;;;;;;;1.80;0.93;;;;;;;7.40;100.00;153259.53;5082471;28;20429;-78
2022/04/08 10:23:16;;;;;;;1.30;0.83;;;;;;;7.36;100.00;153251.78;5086055;28;20429;-78
2022/04/08 10:25:59;;;;;;;1.20;0.80;;;;;;;7.34;100.00;153245.34;5087175;28;20429;-79
2022/04/08 10:28:35;;;;;;;1.00;0.57;;;;;;;7.19;100.00;153207.91;5067850;28;20449;-79
2022/04/08 10:31:16;;;;;;;1.97;0.90;;;;;;;7.10;100.00;153184.66;5089138;28;20425;-79
2022/04/08 10:33:57;;;;;;;2.30;0.80;;;;;;;7.10;100.00;153184.66;5082314;28;20462;-78
2022/04/08 10:36:35;;;;;;;1.13;0.70;;;;;;;7.02;100.00;153164.00;5084086;28;20453;-78
2022/04/08 10:39:23;;;;;;;0.90;0.60;;;;;;;7.01;100.00;153161.44;5089797;28;20425;-78
2022/04/08 10:42:00;;;;;;;2.03;0.60;;;;;;;6.92;100.00;153136.88;5071629;28;20452;-78
2022/04/08 10:44:37;;;;;;;1.67;0.80;;;;;;;6.96;100.00;153147.25;5086693;28;20528;-78
2022/04/08 10:47:15;;;;;;;1.40;0.80;;;;;;;6.94;100.00;153142.03;5086153;28;20867;-78
2022/04/08 10:49:52;;;;;;;1.00;0.80;;;;;;;7.06;100.00;153174.34;5083725;28;20453;-80
2022/04/08 10:52:31;;;;;;;1.87;0.77;;;;;;;7.23;100.00;153218.22;5089303;28;20464;-80
2022/04/08 10:55:09;;;;;;;2.77;1.00;;;;;;;7.26;100.00;153225.97;5072572;28;20461;-80
2022/04/08 10:57:45;;;;;;;2.40;0.90;;;;;;;7.12;100.00;153189.81;5068578;28;20499;-80
2022/04/08 11:00:21;;;;;;;3.00;0.80;;;;;;;7.05;100.00;153171.75;5083225;28;20441;-80
2022/04/08 11:02:57;;;;;;;1.50;0.83;;;;;;;6.93;100.00;153139.47;5070401;28;20479;-80
2022/04/08 11:05:39;;;;;;;0.97;0.73;;;;;;;6.93;100.00;153140.78;5081822;28;20453;-80
2022/04/08 11:08:15;;;;;;;1.83;1.40;;;;;;;6.89;100.00;153130.44;5091844;28;20461;-80
2022/04/08 11:10:57;;;;;;;2.07;1.27;;;;;;;6.66;100.00;153071.06;5062337;28;20453;-80
2022/04/08 11:13:32;;;;;;;1.10;0.83;;;;;;;6.62;100.00;153062.03;5066842;28;20524;-79
2022/04/08 11:16:08;;;;;;;1.40;0.90;;;;;;;6.80;100.00;153105.91;5082915;28;20440;-79
2022/04/08 11:18:48;;;;;;;2.70;1.40;;;;;;;6.73;100.00;153089.13;5069253;28;20445;-79
2022/04/08 11:21:24;;;;;;;2.10;1.50;;;;;;;6.46;100.00;153019.47;5089311;28;20773;-79
2022/04/08 11:24:01;;;;;;;2.00;1.10;;;;;;;6.81;100.00;153109.78;5103741;28;20529;-79
2022/04/08 11:26:42;;;;;;;1.83;1.00;;;;;;;6.96;100.00;153148.53;5072412;28;20462;-79
2022/04/08 11:29:19;;;;;;;1.73;1.33;;;;;;;6.69;100.00;153078.81;5081234;28;20471;-79
2022/04/08 11:32:07;;;;;;;4.00;1.33;;;;;;;6.77;100.00;153099.47;5086301;28;20449;-79
2022/04/08 11:34:43;;;;;;;1.50;1.10;;;;;;;6.77;100.00;153099.47;5087382;28;20484;-79
2022/04/08 11:37:27;;;;;;;1.37;1.20;;;;;;;6.79;100.00;153104.63;5085311;28;20456;-79
2022/04/08 11:40:04;;;;;;;1.83;1.33;;;;;;;6.64;100.00;153065.91;5086513;28;20548;-79
2022/04/08 11:42:40;;;;;;;1.60;1.30;;;;;;;6.63;100.00;153063.31;5068601;28;20446;-79
2022/04/08 11:45:17;;;;;;;3.43;1.80;;;;;;;6.65;100.00;153068.47;5072397;28;20429;-78
2022/04/08 11:47:54;;;;;;;3.47;2.27;;;;;;;6.59;100.00;153053.00;5074659;28;20557;-79
2022/04/08 11:50:32;;;;;;;3.60;2.23;;;;;;;6.54;100.00;153040.13;5085146;28;20932;-79
2022/04/08 11:53:15;;;;;;;1.87;1.77;;;;;;;6.47;100.00;153023.31;5073347;28;20553;-79
2022/04/08 11:55:56;;;;;;;2.13;1.43;;;;;;;6.27;100.00;152971.72;5083855;28;20844;-78
2022/04/08 11:58:32;;;;;;;2.03;1.83;;;;;;;6.24;100.00;152962.66;5069374;28;20870;-78
2022/04/08 12:01:09;;;;;;;2.60;1.47;;;;;;;6.20;100.00;152952.31;5084319;28;20524;-78
2022/04/08 12:03:45;;;;;;;2.90;1.70;;;;;;;6.26;100.00;152967.81;5088225;28;20464;-78
2022/04/08 12:06:20;;;;;;;2.70;1.93;;;;;;;6.25;100.00;152966.53;5084736;28;20436;-78
2022/04/08 12:08:57;;;;;;;2.20;1.70;;;;;;;6.19;100.00;152951.06;5070259;28;20436;-78
2022/04/08 12:11:35;;;;;;;2.50;2.30;;;;;;;6.26;100.00;152967.81;5073440;28;20444;-78
2022/04/08 12:14:12;;;;;;;2.50;2.27;;;;;;;6.27;100.00;152970.41;5068023;28;20979;-78